createdAt,value
2023-05-23T00:00:46.073Z,97.98
2023-05-23T00:01:45.996Z,98.39
2023-05-23T00:02:46.007Z,98.59
2023-05-23T00:03:46.007Z,98.39
2023-05-23T00:04:45.921Z,98.95
2023-05-23T00:05:45.925Z,98.90
2023-05-23T00:06:45.900Z,98.90
2023-05-23T00:07:45.909Z,98.90
2023-05-23T00:08:45.906Z,98.49
2023-05-23T00:09:45.878Z,99.10
2023-05-23T00:10:45.877Z,99.50
2023-05-23T00:11:46.018Z,98.59
2023-05-23T00:12:45.851Z,98.90
2023-05-23T00:13:45.846Z,98.99
2023-05-23T00:14:45.876Z,98.99
2023-05-23T00:15:45.859Z,99.40
2023-05-23T00:16:48.699Z,98.69
2023-05-23T00:17:45.825Z,99.10
2023-05-23T00:18:46.044Z,99.99
2023-05-23T00:19:45.832Z,99.50
2023-05-23T00:21:36.302Z,99.80
2023-05-23T00:22:36.263Z,99.40
2023-05-23T00:23:36.284Z,99.50
2023-05-23T00:24:36.253Z,99.55
2023-05-23T00:25:36.247Z,99.60
2023-05-23T00:26:37.175Z,99.75
2023-05-23T00:27:36.242Z,99.65
2023-05-23T00:28:36.233Z,99.65
2023-05-23T00:29:36.228Z,99.75
2023-05-23T00:30:36.203Z,99.75
2023-05-23T00:31:36.282Z,99.75
2023-05-23T00:32:36.327Z,99.75
2023-05-23T00:33:36.181Z,99.65
2023-05-23T00:34:36.169Z,99.85
2023-05-23T00:35:36.173Z,99.85
2023-05-23T00:36:37.252Z,99.65
2023-05-23T00:37:37.249Z,99.85
2023-05-23T00:38:37.247Z,99.99
2023-05-23T00:39:37.263Z,99.55
2023-05-23T00:40:37.219Z,99.99
2023-05-23T00:41:37.227Z,99.69
2023-05-23T00:42:37.226Z,99.29
2023-05-23T00:43:37.192Z,99.99
2023-05-23T00:44:37.182Z,99.99
2023-05-23T00:45:37.194Z,99.99
2023-05-23T00:46:37.258Z,99.99
2023-05-23T00:47:37.188Z,99.99
2023-05-23T00:48:37.275Z,99.99
2023-05-23T00:49:37.150Z,99.99
2023-05-23T00:50:37.138Z,99.99
2023-05-23T00:51:37.123Z,99.99
2023-05-23T00:52:37.116Z,99.80
2023-05-23T00:53:37.126Z,99.99
2023-05-23T00:54:37.096Z,99.99
2023-05-23T00:55:37.134Z,99.99
2023-05-23T00:56:37.089Z,99.99
2023-05-23T00:57:37.094Z,99.69
2023-05-23T00:58:37.073Z,99.69
2023-05-23T00:59:37.086Z,99.99
2023-05-23T01:00:37.066Z,99.99
2023-05-23T01:01:37.115Z,99.49
2023-05-23T01:02:37.128Z,99.39
2023-05-23T01:03:37.076Z,99.99
2023-05-23T01:04:37.170Z,99.99
2023-05-23T01:05:37.026Z,99.99
2023-05-23T01:06:37.025Z,99.99
2023-05-23T01:07:37.006Z,99.99
2023-05-23T01:08:37.013Z,99.99
2023-05-23T01:09:37.011Z,99.99
2023-05-23T01:10:36.976Z,99.99
2023-05-23T01:11:37.720Z,99.99
2023-05-23T01:12:36.994Z,99.99
2023-05-23T01:13:36.952Z,99.99
2023-05-23T01:14:36.957Z,99.99
2023-05-23T01:15:36.969Z,99.99
2023-05-23T01:16:36.950Z,99.99
2023-05-23T01:17:37.020Z,99.99
2023-05-23T01:18:36.915Z,99.99
2023-05-23T01:19:36.910Z,99.99
2023-05-23T01:20:36.990Z,99.99
2023-05-23T01:21:36.990Z,99.99
2023-05-23T01:22:36.950Z,99.99
2023-05-23T01:23:36.912Z,99.99
2023-05-23T01:24:36.861Z,99.99
2023-05-23T01:25:36.853Z,99.99
2023-05-23T01:26:36.849Z,99.99
2023-05-23T01:27:36.844Z,99.99
2023-05-23T01:28:36.846Z,99.99
2023-05-23T01:29:36.853Z,99.99
2023-05-23T01:30:36.840Z,99.99
2023-05-23T01:31:36.883Z,99.99
2023-05-23T01:32:36.850Z,99.99
2023-05-23T01:33:36.798Z,99.99
2023-05-23T01:34:36.798Z,99.99
2023-05-23T01:35:36.783Z,99.99
2023-05-23T01:36:36.877Z,99.99
2023-05-23T01:37:36.781Z,99.99
2023-05-23T01:38:36.805Z,99.99
2023-05-23T01:39:36.765Z,99.99
2023-05-23T01:40:36.738Z,99.99
2023-05-23T01:41:36.740Z,99.99
2023-05-23T01:42:36.743Z,99.99
2023-05-23T01:43:36.721Z,99.99
2023-05-23T01:44:36.708Z,99.99
2023-05-23T01:45:36.753Z,99.99
2023-05-23T01:46:36.687Z,99.99
2023-05-23T01:47:36.739Z,99.99
2023-05-23T01:48:36.685Z,99.99
2023-05-23T01:49:36.668Z,99.99
2023-05-23T01:50:36.674Z,99.99
2023-05-23T01:51:36.661Z,99.99
2023-05-23T01:52:36.752Z,99.99
2023-05-23T01:53:36.648Z,99.99
2023-05-23T01:54:36.628Z,99.99
2023-05-23T01:55:36.676Z,99.99
2023-05-23T01:56:36.640Z,99.65
2023-05-23T01:57:36.618Z,99.85
2023-05-23T01:58:36.602Z,99.75
2023-05-23T01:59:36.592Z,99.91
2023-05-23T02:00:36.589Z,99.99
2023-05-23T02:01:36.639Z,99.99
2023-05-23T02:02:36.626Z,99.99
2023-05-23T02:03:36.624Z,99.50
2023-05-23T02:04:36.552Z,99.40
2023-05-23T02:05:36.534Z,99.50
2023-05-23T02:06:37.177Z,99.99
2023-05-23T02:07:36.529Z,99.80
2023-05-23T02:08:36.650Z,99.60
2023-05-23T02:09:36.538Z,98.99
2023-05-23T02:10:36.510Z,99.10
2023-05-23T02:11:36.499Z,98.79
2023-05-23T02:12:36.514Z,98.59
2023-05-23T02:13:36.484Z,98.59
2023-05-23T02:14:36.488Z,99.05
2023-05-23T02:15:36.466Z,98.59
2023-05-23T02:16:36.663Z,98.54
2023-05-23T02:17:36.477Z,98.24
2023-05-23T02:18:36.450Z,98.54
2023-05-23T02:19:36.575Z,98.90
2023-05-23T02:20:36.456Z,98.44
2023-05-23T02:21:36.430Z,98.95
2023-05-23T02:22:36.420Z,98.44
2023-05-23T02:23:36.416Z,98.90
2023-05-23T02:24:36.505Z,98.99
2023-05-23T02:25:36.394Z,98.90
2023-05-23T02:26:36.395Z,98.28
2023-05-23T02:27:36.389Z,98.59
2023-05-23T02:28:36.370Z,98.59
2023-05-23T02:29:36.358Z,98.49
2023-05-23T02:30:36.353Z,98.90
2023-05-23T02:31:36.387Z,98.28
2023-05-23T02:32:36.470Z,98.79
2023-05-23T02:33:36.346Z,98.59
2023-05-23T02:34:36.323Z,98.49
2023-05-23T02:35:36.298Z,98.95
2023-05-23T02:36:36.308Z,99.10
2023-05-23T02:37:36.293Z,98.44
2023-05-23T02:38:36.293Z,98.65
2023-05-23T02:39:36.269Z,97.73
2023-05-23T02:40:36.386Z,97.94
2023-05-23T02:41:36.289Z,97.63
2023-05-23T02:42:36.240Z,98.03
2023-05-23T02:43:36.251Z,97.83
2023-05-23T02:44:36.240Z,97.94
2023-05-23T02:45:36.227Z,97.23
2023-05-23T02:46:36.329Z,97.02
2023-05-23T02:47:36.258Z,97.58
2023-05-23T02:48:36.226Z,97.38
2023-05-23T02:49:36.189Z,96.88
2023-05-23T02:50:37.191Z,96.67
2023-05-23T02:51:36.175Z,96.67
2023-05-23T02:52:36.177Z,95.97
2023-05-23T02:53:36.184Z,96.27
2023-05-23T02:54:36.179Z,96.07
2023-05-23T02:55:36.166Z,95.66
2023-05-23T02:56:36.242Z,95.66
2023-05-23T02:57:36.135Z,95.56
2023-05-23T02:58:36.169Z,95.36
2023-05-23T02:59:36.149Z,95.61
2023-05-23T03:00:36.114Z,95.66
2023-05-23T03:01:36.123Z,95.61
2023-05-23T03:02:36.138Z,95.61
2023-05-23T03:03:36.161Z,95.61
2023-05-23T03:04:36.072Z,95.20
2023-05-23T03:05:36.067Z,94.75
2023-05-23T03:06:36.063Z,94.90
2023-05-23T03:07:36.057Z,93.58
2023-05-23T03:08:36.041Z,93.48
2023-05-23T03:09:36.062Z,93.78
2023-05-23T03:10:36.050Z,94.39
2023-05-23T03:11:36.071Z,94.29
2023-05-23T03:12:36.119Z,93.99
2023-05-23T03:13:36.003Z,93.88
2023-05-23T03:14:35.985Z,94.29
2023-05-23T03:15:36.002Z,94.03
2023-05-23T03:16:36.065Z,93.78
2023-05-23T03:17:36.008Z,94.23
2023-05-23T03:18:35.994Z,93.99
2023-05-23T03:19:36.690Z,93.93
2023-05-23T03:20:36.945Z,94.03
2023-05-23T03:21:35.942Z,94.13
2023-05-23T03:22:35.937Z,93.93
2023-05-23T03:23:35.927Z,94.03
2023-05-23T03:24:36.757Z,94.07
2023-05-23T03:25:35.912Z,93.93
2023-05-23T03:26:35.904Z,94.03
2023-05-23T03:27:35.882Z,93.83
2023-05-23T03:28:35.996Z,94.13
2023-05-23T03:29:35.880Z,93.57
2023-05-23T03:30:35.855Z,93.57
2023-05-23T03:31:36.890Z,93.37
2023-05-23T03:32:35.884Z,93.16
2023-05-23T03:33:38.239Z,92.41
2023-05-23T03:34:37.180Z,92.05
2023-05-23T03:35:35.817Z,91.85
2023-05-23T03:36:36.752Z,92.14
2023-05-23T03:37:35.806Z,91.74
2023-05-23T03:38:35.798Z,91.34
2023-05-23T03:39:36.413Z,91.09
2023-05-23T03:40:37.191Z,90.89
2023-05-23T03:41:35.791Z,91.19
2023-05-23T03:42:35.767Z,91.09
2023-05-23T03:43:35.766Z,91.09
2023-05-23T03:44:36.814Z,91.30
2023-05-23T03:45:42.985Z,91.09
2023-05-23T03:46:39.676Z,90.99
2023-05-23T03:47:36.683Z,91.05
2023-05-23T03:48:35.769Z,90.75
2023-05-23T03:49:35.812Z,91.15
2023-05-23T03:50:36.694Z,91.05
2023-05-23T03:51:35.777Z,90.95
2023-05-23T03:52:35.710Z,90.75
2023-05-23T03:53:36.701Z,90.64
2023-05-23T03:54:36.721Z,90.95
2023-05-23T03:55:35.673Z,91.05
2023-05-23T03:56:35.676Z,90.54
2023-05-23T03:57:36.270Z,90.44
2023-05-23T03:58:35.656Z,90.64
2023-05-23T03:59:35.659Z,90.75
2023-05-23T04:00:35.745Z,90.54
2023-05-23T04:01:35.634Z,90.54
2023-05-23T04:02:35.649Z,90.09
2023-05-23T04:03:35.903Z,90.03
2023-05-23T04:04:35.672Z,90.09
2023-05-23T04:05:35.608Z,89.59
2023-05-23T04:06:35.598Z,89.59
2023-05-23T04:07:35.573Z,88.48
2023-05-23T04:08:35.608Z,88.48
2023-05-23T04:09:35.547Z,87.73
2023-05-23T04:10:35.561Z,87.66
2023-05-23T04:11:35.553Z,87.12
2023-05-23T04:12:35.536Z,86.71
2023-05-23T04:13:35.610Z,86.71
2023-05-23T04:14:35.533Z,86.00
2023-05-23T04:15:35.522Z,86.82
2023-05-23T04:16:35.687Z,86.21
2023-05-23T04:17:35.532Z,86.77
2023-05-23T04:18:35.505Z,85.76
2023-05-23T04:19:35.560Z,85.66
2023-05-23T04:20:36.191Z,84.99
2023-05-23T04:21:35.473Z,85.05
2023-05-23T04:22:35.464Z,84.95
2023-05-23T04:23:35.458Z,84.55
2023-05-23T04:24:35.451Z,84.71
2023-05-23T04:25:35.443Z,84.75
2023-05-23T04:26:35.435Z,84.75
2023-05-23T04:27:35.977Z,84.75
2023-05-23T04:28:35.429Z,84.75
2023-05-23T04:29:35.404Z,84.71
2023-05-23T04:30:35.392Z,84.71
2023-05-23T04:31:35.498Z,84.51
2023-05-23T04:32:35.528Z,84.81
2023-05-23T04:33:35.382Z,84.00
2023-05-23T04:34:35.384Z,83.70
2023-05-23T04:35:35.363Z,84.41
2023-05-23T04:36:35.360Z,84.31
2023-05-23T04:37:35.345Z,84.27
2023-05-23T04:38:35.349Z,83.96
2023-05-23T04:39:35.332Z,84.17
2023-05-23T04:40:35.322Z,83.86
2023-05-23T04:41:36.360Z,84.37
2023-05-23T04:42:35.314Z,83.66
2023-05-23T04:43:35.305Z,83.15
2023-05-23T04:44:35.303Z,83.12
2023-05-23T04:45:35.284Z,83.46
2023-05-23T04:46:35.299Z,83.66
2023-05-23T04:47:37.294Z,83.82
2023-05-23T04:48:36.402Z,83.92
2023-05-23T04:49:35.245Z,83.52
2023-05-23T04:50:35.240Z,83.12
2023-05-23T04:51:35.225Z,83.22
2023-05-23T04:52:35.228Z,82.51
2023-05-23T04:53:35.224Z,82.41
2023-05-23T04:54:35.208Z,82.71
2023-05-23T04:55:35.202Z,82.91
2023-05-23T04:56:35.200Z,82.81
2023-05-23T04:57:35.188Z,83.01
2023-05-23T04:58:35.192Z,82.41
2023-05-23T04:59:35.233Z,82.91
2023-05-23T05:00:35.204Z,82.91
2023-05-23T05:01:35.227Z,82.24
2023-05-23T05:02:35.186Z,82.24
2023-05-23T05:03:35.152Z,82.55
2023-05-23T05:04:35.749Z,82.35
2023-05-23T05:05:35.126Z,82.14
2023-05-23T05:06:35.158Z,82.35
2023-05-23T05:07:35.147Z,82.75
2023-05-23T05:08:35.095Z,83.56
2023-05-23T05:09:35.117Z,83.15
2023-05-23T05:10:35.720Z,83.26
2023-05-23T05:11:35.110Z,83.15
2023-05-23T05:12:35.056Z,83.56
2023-05-23T05:13:36.730Z,83.56
2023-05-23T05:14:35.063Z,83.26
2023-05-23T05:15:35.111Z,83.09
2023-05-23T05:16:35.055Z,83.26
2023-05-23T05:17:35.033Z,83.15
2023-05-23T05:18:35.027Z,82.85
2023-05-23T05:19:35.076Z,82.69
2023-05-23T05:20:35.122Z,83.56
2023-05-23T05:21:34.979Z,83.46
2023-05-23T05:22:34.988Z,83.46
2023-05-23T05:23:34.981Z,83.40
2023-05-23T05:24:34.958Z,82.75
2023-05-23T05:25:34.962Z,83.29
2023-05-23T05:26:34.947Z,83.50
2023-05-23T05:27:34.948Z,83.80
2023-05-23T05:28:34.928Z,83.70
2023-05-23T05:29:34.928Z,84.31
2023-05-23T05:30:35.719Z,83.60
2023-05-23T05:31:35.008Z,83.40
2023-05-23T05:32:34.948Z,83.50
2023-05-23T05:33:34.890Z,84.00
2023-05-23T05:34:34.891Z,83.74
2023-05-23T05:35:34.890Z,82.62
2023-05-23T05:36:34.977Z,84.08
2023-05-23T05:37:35.795Z,83.64
2023-05-23T05:38:34.902Z,84.14
2023-05-23T05:39:34.846Z,84.08
2023-05-23T05:40:34.847Z,83.84
2023-05-23T05:41:34.835Z,82.93
2023-05-23T05:42:34.813Z,82.46
2023-05-23T05:43:35.737Z,82.22
2023-05-23T05:44:34.804Z,81.71
2023-05-23T05:45:36.741Z,82.02
2023-05-23T05:46:34.825Z,81.82
2023-05-23T05:47:34.852Z,81.82
2023-05-23T05:48:34.899Z,82.16
2023-05-23T05:49:34.761Z,82.22
2023-05-23T05:50:34.775Z,82.42
2023-05-23T05:51:34.748Z,82.32
2023-05-23T05:52:34.853Z,82.02
2023-05-23T05:53:34.768Z,81.88
2023-05-23T05:54:34.725Z,81.17
2023-05-23T05:55:34.721Z,80.50
2023-05-23T05:56:34.720Z,80.71
2023-05-23T05:57:36.241Z,80.60
2023-05-23T05:58:34.696Z,80.57
2023-05-23T05:59:35.245Z,79.86
2023-05-23T06:00:34.774Z,79.75
2023-05-23T06:01:34.677Z,79.66
2023-05-23T06:02:34.773Z,80.06
2023-05-23T06:03:34.818Z,79.86
2023-05-23T06:04:34.732Z,79.66
2023-05-23T06:06:41.452Z,79.21
2023-05-23T06:07:41.463Z,79.21
2023-05-23T06:08:41.521Z,78.71
2023-05-23T06:09:41.474Z,78.27
2023-05-23T06:10:41.647Z,77.56
2023-05-23T06:11:43.317Z,77.56
2023-05-23T06:12:41.529Z,77.66
2023-05-23T06:13:41.405Z,77.12
2023-05-23T06:14:41.451Z,75.50
2023-05-23T06:15:41.469Z,74.55
2023-05-23T06:16:41.479Z,72.30
2023-05-23T06:17:42.382Z,67.99
2023-05-23T06:18:41.396Z,66.18
2023-05-23T06:19:41.401Z,65.88
2023-05-23T06:20:48.818Z,66.15
2023-05-23T06:21:41.319Z,65.85
2023-05-23T06:22:41.319Z,65.35
2023-05-23T06:23:41.414Z,65.42
2023-05-23T06:24:41.299Z,64.95
2023-05-23T06:25:41.327Z,65.42
2023-05-23T06:26:41.285Z,64.42
2023-05-23T06:27:41.285Z,64.45
2023-05-23T06:28:42.357Z,64.45
2023-05-23T06:29:42.354Z,63.65
2023-05-23T06:30:42.605Z,64.39
2023-05-23T06:31:42.362Z,64.51
2023-05-23T06:32:42.407Z,64.28
2023-05-23T06:33:42.323Z,63.01
2023-05-23T06:34:42.327Z,66.05
2023-05-23T06:35:42.836Z,68.32
2023-05-23T06:36:42.302Z,68.52
2023-05-23T06:37:42.319Z,68.75
2023-05-23T06:38:42.312Z,69.65
2023-05-23T06:39:42.323Z,69.12
2023-05-23T06:40:42.481Z,69.32
2023-05-23T06:41:42.262Z,69.65
2023-05-23T06:42:42.249Z,69.82
2023-05-23T06:43:42.267Z,69.76
2023-05-23T06:44:42.235Z,69.45
2023-05-23T06:45:42.847Z,70.32
2023-05-23T06:46:42.226Z,71.06
2023-05-23T06:47:42.263Z,71.16
2023-05-23T06:48:42.201Z,71.67
2023-05-23T06:49:42.218Z,72.51
2023-05-23T06:50:42.571Z,72.51
2023-05-23T06:51:42.314Z,73.14
2023-05-23T06:52:42.199Z,72.94
2023-05-23T06:53:42.156Z,73.28
2023-05-23T06:54:42.157Z,73.82
2023-05-23T06:55:42.257Z,74.39
2023-05-23T06:56:42.148Z,74.08
2023-05-23T06:57:42.177Z,74.29
2023-05-23T06:59:49.258Z,74.12
2023-05-23T07:00:50.177Z,74.73
2023-05-23T07:01:51.115Z,74.63
2023-05-23T07:02:50.475Z,74.39
2023-05-23T07:03:50.354Z,75.20
2023-05-23T07:04:50.324Z,75.30
2023-05-23T07:05:52.231Z,74.59
2023-05-23T07:06:51.154Z,74.02
2023-05-23T07:07:50.296Z,75.37
2023-05-23T07:08:50.301Z,75.27
2023-05-23T07:09:51.125Z,75.77
2023-05-23T07:10:50.377Z,75.57
2023-05-23T07:11:50.291Z,75.57
2023-05-23T07:12:50.247Z,75.47
2023-05-23T07:13:50.277Z,75.27
2023-05-23T07:14:53.629Z,75.87
2023-05-23T07:15:50.262Z,75.98
2023-05-23T07:17:57.067Z,75.23
2023-05-23T07:18:57.077Z,75.34
2023-05-23T07:19:58.165Z,74.93
2023-05-23T07:20:58.137Z,74.32
2023-05-23T07:21:58.137Z,74.49
2023-05-23T07:22:58.142Z,74.52
2023-05-23T07:23:58.117Z,75.16
2023-05-23T07:24:58.133Z,75.77
2023-05-23T07:26:02.371Z,75.27
2023-05-23T07:27:00.110Z,76.58
2023-05-23T07:27:58.119Z,76.07
2023-05-23T07:28:59.010Z,75.77
2023-05-23T07:29:58.107Z,75.57
2023-05-23T07:30:58.124Z,76.14
2023-05-23T07:31:58.060Z,75.98
2023-05-23T07:32:58.088Z,75.84
2023-05-23T07:33:58.497Z,75.54
2023-05-23T07:34:58.070Z,74.49
2023-05-23T07:35:58.021Z,75.10
2023-05-23T07:36:58.019Z,74.39
2023-05-23T07:37:58.020Z,74.59
2023-05-23T07:38:58.008Z,75.23
2023-05-23T07:39:58.005Z,76.07
2023-05-23T07:41:07.395Z,76.82
2023-05-23T07:41:59.971Z,77.53
2023-05-23T07:42:57.961Z,77.53
2023-05-23T07:43:58.023Z,77.12
2023-05-23T07:44:57.986Z,77.32
2023-05-23T07:45:57.950Z,77.02
2023-05-23T07:46:57.996Z,76.88
2023-05-23T07:47:58.031Z,76.88
2023-05-23T07:48:57.913Z,76.68
2023-05-23T07:49:57.922Z,77.04
2023-05-23T07:50:57.917Z,77.19
2023-05-23T07:51:57.889Z,76.68
2023-05-23T07:52:57.886Z,76.98
2023-05-23T07:53:57.879Z,75.74
2023-05-23T07:54:57.867Z,75.80
2023-05-23T07:55:57.857Z,75.67
2023-05-23T07:56:57.848Z,74.86
2023-05-23T07:57:57.868Z,74.12
2023-05-23T07:58:57.837Z,74.22
2023-05-23T07:59:57.856Z,74.22
2023-05-23T08:00:57.819Z,74.12
2023-05-23T08:01:57.903Z,73.58
2023-05-23T08:02:57.814Z,73.58
2023-05-23T08:03:57.824Z,73.88
2023-05-23T08:04:57.784Z,73.78
2023-05-23T08:05:57.768Z,73.88
2023-05-23T08:07:04.893Z,72.88
2023-05-23T08:07:59.778Z,73.68
2023-05-23T08:08:57.752Z,72.97
2023-05-23T08:09:57.792Z,73.68
2023-05-23T08:10:57.748Z,72.94
2023-05-23T08:11:57.810Z,72.57
2023-05-23T08:12:57.716Z,72.91
2023-05-23T08:13:59.427Z,73.99
2023-05-23T08:14:57.702Z,75.30
2023-05-23T08:15:57.730Z,76.14
2023-05-23T08:16:57.764Z,77.66
2023-05-23T08:17:57.741Z,78.70
2023-05-23T08:18:57.709Z,79.64
2023-05-23T08:19:57.714Z,79.50
2023-05-23T08:20:57.654Z,79.50
2023-05-23T08:21:57.785Z,79.06
2023-05-23T08:22:57.690Z,79.27
2023-05-23T08:23:57.638Z,77.45
2023-05-23T08:24:57.638Z,77.95
2023-05-23T08:25:57.645Z,77.25
2023-05-23T08:26:57.610Z,77.62
2023-05-23T08:27:57.605Z,78.16
2023-05-23T08:28:57.589Z,77.72
2023-05-23T08:29:57.596Z,77.62
2023-05-23T08:30:57.582Z,77.42
2023-05-23T08:31:57.589Z,76.71
2023-05-23T08:32:57.619Z,76.81
2023-05-23T08:33:57.562Z,76.81
2023-05-23T08:34:57.566Z,77.21
2023-05-23T08:35:58.460Z,77.35
2023-05-23T08:36:57.551Z,77.66
2023-05-23T08:37:57.551Z,78.26
2023-05-23T08:38:57.538Z,77.55
2023-05-23T08:39:58.029Z,77.66
2023-05-23T08:40:57.503Z,78.66
2023-05-23T08:41:57.495Z,79.36
2023-05-23T08:42:58.073Z,78.26
2023-05-23T08:43:58.084Z,79.16
2023-05-23T08:44:57.480Z,79.57
2023-05-23T08:45:58.581Z,80.07
2023-05-23T08:46:57.449Z,79.53
2023-05-23T08:47:57.462Z,79.53
2023-05-23T08:48:57.443Z,79.33
2023-05-23T08:49:57.434Z,79.03
2023-05-23T08:50:57.438Z,79.23
2023-05-23T08:51:57.493Z,78.52
2023-05-23T08:52:57.428Z,79.13
2023-05-23T08:53:57.402Z,79.36
2023-05-23T08:54:57.409Z,78.66
2023-05-23T08:55:57.385Z,79.06
2023-05-23T08:56:57.386Z,79.61
2023-05-23T08:57:57.365Z,79.81
2023-05-23T08:58:57.363Z,80.76
2023-05-23T08:59:57.388Z,80.15
2023-05-23T09:00:57.373Z,80.82
2023-05-23T09:01:58.144Z,80.21
2023-05-23T09:02:57.476Z,79.94
2023-05-23T09:03:57.319Z,80.05
2023-05-23T09:04:57.364Z,79.71
2023-05-23T09:05:57.444Z,80.05
2023-05-23T09:06:57.315Z,80.15
2023-05-23T09:07:57.303Z,80.25
2023-05-23T09:08:57.294Z,79.94
2023-05-23T09:09:57.293Z,79.64
2023-05-23T09:10:57.263Z,79.94
2023-05-23T09:11:57.264Z,79.54
2023-05-23T09:12:57.262Z,79.04
2023-05-23T09:13:57.261Z,79.58
2023-05-23T09:14:57.237Z,80.08
2023-05-23T09:15:57.276Z,80.15
2023-05-23T09:16:57.242Z,79.64
2023-05-23T09:17:57.320Z,79.14
2023-05-23T09:18:57.310Z,78.70
2023-05-23T09:19:57.214Z,77.89
2023-05-23T09:20:57.200Z,78.09
2023-05-23T09:21:57.225Z,77.99
2023-05-23T09:22:57.242Z,77.59
2023-05-23T09:23:57.173Z,77.49
2023-05-23T09:24:57.172Z,77.79
2023-05-23T09:25:57.967Z,76.84
2023-05-23T09:26:57.179Z,77.15
2023-05-23T09:27:57.141Z,77.19
2023-05-23T09:28:57.150Z,77.28
2023-05-23T09:29:57.139Z,77.59
2023-05-23T09:30:57.153Z,77.59
2023-05-23T09:31:57.313Z,77.69
2023-05-23T09:33:00.196Z,77.19
2023-05-23T09:33:57.105Z,76.78
2023-05-23T09:36:04.446Z,77.49
2023-05-23T09:37:05.300Z,77.49
2023-05-23T09:38:04.450Z,77.69
2023-05-23T09:39:04.428Z,77.66
2023-05-23T09:40:04.475Z,76.88
2023-05-23T09:41:04.422Z,76.98
2023-05-23T09:42:04.413Z,76.58
2023-05-23T09:43:04.412Z,77.28
2023-05-23T09:44:04.392Z,77.59
2023-05-23T09:45:05.113Z,77.39
2023-05-23T09:46:04.379Z,77.19
2023-05-23T09:47:05.515Z,76.68
2023-05-23T09:48:05.487Z,76.38
2023-05-23T09:49:05.465Z,77.19
2023-05-23T09:50:05.432Z,77.19
2023-05-23T09:51:05.439Z,77.42
2023-05-23T09:52:05.428Z,77.73
2023-05-23T09:53:05.444Z,77.83
2023-05-23T09:54:06.405Z,77.53
2023-05-23T09:55:05.391Z,77.39
2023-05-23T09:56:05.426Z,77.73
2023-05-23T09:57:06.033Z,77.97
2023-05-23T09:58:05.373Z,77.93
2023-05-23T09:59:05.353Z,77.53
2023-05-23T10:00:06.379Z,77.53
2023-05-23T10:01:05.393Z,77.83
2023-05-23T10:02:05.354Z,78.47
2023-05-23T10:03:05.392Z,78.03
2023-05-23T10:04:05.403Z,77.53
2023-05-23T10:05:06.866Z,77.56
2023-05-23T10:06:05.310Z,77.56
2023-05-23T10:07:05.307Z,78.27
2023-05-23T10:08:05.331Z,77.76
2023-05-23T10:09:05.341Z,77.53
2023-05-23T10:10:05.287Z,76.72
2023-05-23T10:11:05.281Z,77.32
2023-05-23T10:12:05.268Z,76.48
2023-05-23T10:13:05.248Z,76.72
2023-05-23T10:14:05.254Z,76.68
2023-05-23T10:15:05.245Z,75.77
2023-05-23T10:16:05.837Z,75.47
2023-05-23T10:17:05.266Z,75.87
2023-05-23T10:18:05.224Z,75.94
2023-05-23T10:19:05.237Z,75.43
2023-05-23T10:20:05.822Z,75.47
2023-05-23T10:21:05.184Z,75.54
2023-05-23T10:22:05.203Z,75.43
2023-05-23T10:23:05.194Z,75.20
2023-05-23T10:24:05.355Z,75.30
2023-05-23T10:25:05.213Z,74.90
2023-05-23T10:26:05.220Z,75.20
2023-05-23T10:27:05.155Z,75.74
2023-05-23T10:28:05.215Z,75.74
2023-05-23T10:29:05.134Z,75.74
2023-05-23T10:30:05.118Z,75.54
2023-05-23T10:31:06.162Z,75.87
2023-05-23T10:32:05.103Z,77.59
2023-05-23T10:33:06.163Z,77.22
2023-05-23T10:34:05.105Z,77.79
2023-05-23T10:35:05.079Z,77.53
2023-05-23T10:36:05.115Z,77.73
2023-05-23T10:37:05.066Z,77.26
2023-05-23T10:38:05.047Z,77.36
2023-05-23T10:39:05.047Z,77.12
2023-05-23T10:40:05.055Z,77.22
2023-05-23T10:41:05.049Z,77.06
2023-05-23T10:42:05.095Z,77.60
2023-05-23T10:43:05.003Z,78.41
2023-05-23T10:44:05.056Z,78.14
2023-05-23T10:45:04.985Z,78.85
2023-05-23T10:46:05.141Z,79.29
2023-05-23T10:47:05.054Z,78.17
2023-05-23T10:48:05.020Z,80.64
2023-05-23T10:49:04.964Z,80.13
2023-05-23T10:50:04.979Z,80.04
2023-05-23T10:51:05.827Z,79.73
2023-05-23T10:52:04.934Z,79.93
2023-05-23T10:53:04.941Z,79.53
2023-05-23T10:54:04.923Z,79.26
2023-05-23T10:55:04.918Z,79.50
2023-05-23T10:56:05.436Z,79.50
2023-05-23T10:57:04.964Z,80.35
2023-05-23T10:58:04.900Z,80.52
2023-05-23T10:59:04.899Z,79.30
2023-05-23T11:00:04.873Z,78.55
2023-05-23T11:01:04.909Z,77.81
2023-05-23T11:02:04.874Z,77.57
2023-05-23T11:03:04.955Z,77.47
2023-05-23T11:04:04.901Z,76.86
2023-05-23T11:05:04.837Z,76.35
2023-05-23T11:06:04.854Z,75.65
2023-05-23T11:07:05.823Z,76.09
2023-05-23T11:08:04.839Z,75.79
2023-05-23T11:09:07.045Z,76.43
2023-05-23T11:10:05.820Z,76.90
2023-05-23T11:11:06.322Z,76.93
2023-05-23T11:12:04.823Z,77.40
2023-05-23T11:13:04.764Z,77.58
2023-05-23T11:14:04.849Z,77.88
2023-05-23T11:15:04.747Z,77.75
2023-05-23T11:16:04.941Z,78.05
2023-05-23T11:17:04.820Z,77.20
2023-05-23T11:18:04.768Z,76.19
2023-05-23T11:19:04.765Z,77.00
2023-05-23T11:20:04.719Z,76.59
2023-05-23T11:21:04.724Z,76.15
2023-05-23T11:22:06.429Z,75.45
2023-05-23T11:23:05.690Z,75.41
2023-05-23T11:24:07.367Z,75.21
2023-05-23T11:25:04.689Z,74.87
2023-05-23T11:26:04.675Z,75.17
2023-05-23T11:27:04.664Z,75.07
2023-05-23T11:28:04.655Z,74.40
2023-05-23T11:29:04.653Z,76.35
2023-05-23T11:30:04.647Z,76.79
2023-05-23T11:31:04.626Z,77.30
2023-05-23T11:32:05.059Z,77.06
2023-05-23T11:33:04.656Z,77.47
2023-05-23T11:34:04.600Z,76.26
2023-05-23T11:35:05.428Z,75.92
2023-05-23T11:36:04.621Z,76.02
2023-05-23T11:37:04.582Z,76.66
2023-05-23T11:38:04.572Z,76.22
2023-05-23T11:39:04.580Z,76.42
2023-05-23T11:40:04.582Z,76.82
2023-05-23T11:41:04.572Z,76.97
2023-05-23T11:42:04.579Z,76.86
2023-05-23T11:43:07.894Z,77.43
2023-05-23T11:44:38.877Z,76.52
2023-05-23T11:45:04.533Z,76.28
2023-05-23T11:46:04.560Z,75.57
2023-05-23T11:47:04.512Z,76.22
2023-05-23T11:48:04.540Z,77.77
2023-05-23T11:49:04.523Z,76.82
2023-05-23T11:50:04.482Z,76.42
2023-05-23T11:51:04.487Z,76.62
2023-05-23T11:52:04.506Z,77.67
2023-05-23T11:53:04.567Z,77.26
2023-05-23T11:54:04.457Z,77.97
2023-05-23T11:55:04.455Z,77.57
2023-05-23T11:56:05.387Z,77.73
2023-05-23T11:57:05.428Z,76.08
2023-05-23T11:58:06.379Z,75.88
2023-05-23T11:59:04.405Z,75.04
2023-05-23T12:00:08.401Z,75.34
2023-05-23T12:01:05.382Z,75.24
2023-05-23T12:02:04.435Z,75.00
2023-05-23T12:03:04.410Z,74.53
2023-05-23T12:04:04.526Z,74.93
2023-05-23T12:05:04.954Z,74.93
2023-05-23T12:06:04.381Z,75.48
2023-05-23T12:07:04.401Z,75.54
2023-05-23T12:08:04.390Z,75.57
2023-05-23T12:09:04.341Z,75.98
2023-05-23T12:10:04.325Z,76.32
2023-05-23T12:11:04.324Z,75.41
2023-05-23T12:12:04.964Z,76.86
2023-05-23T12:13:05.893Z,76.32
2023-05-23T12:14:04.309Z,76.86
2023-05-23T12:15:04.313Z,77.33
2023-05-23T12:16:05.165Z,77.17
2023-05-23T12:17:04.264Z,77.53
2023-05-23T12:18:05.283Z,77.43
2023-05-23T12:19:04.293Z,76.82
2023-05-23T12:20:04.262Z,77.43
2023-05-23T12:21:04.226Z,76.82
2023-05-23T12:22:04.245Z,77.06
2023-05-23T12:23:04.223Z,78.52
2023-05-23T12:24:04.218Z,77.95
2023-05-23T12:25:04.224Z,78.66
2023-05-23T12:26:04.195Z,78.45
2023-05-23T12:28:11.074Z,78.28
2023-05-23T12:29:11.066Z,78.28
2023-05-23T12:30:12.153Z,79.50
2023-05-23T12:31:12.278Z,78.59
2023-05-23T12:32:12.914Z,78.89
2023-05-23T12:33:12.114Z,78.79
2023-05-23T12:34:12.130Z,79.20
2023-05-23T12:35:12.132Z,79.50
2023-05-23T12:36:12.116Z,79.50
2023-05-23T12:38:14.163Z,78.96
2023-05-23T12:39:12.074Z,78.45
2023-05-23T12:40:12.061Z,79.50
2023-05-23T12:41:12.067Z,79.00
2023-05-23T12:42:12.040Z,79.06
2023-05-23T12:43:12.038Z,78.62
2023-05-23T12:44:12.070Z,79.26
2023-05-23T12:45:12.020Z,79.60
2023-05-23T12:46:12.025Z,79.80
2023-05-23T12:47:12.202Z,79.80
2023-05-23T12:48:12.028Z,80.65
2023-05-23T12:49:12.024Z,80.65
2023-05-23T12:50:11.978Z,80.62
2023-05-23T12:51:11.991Z,80.45
2023-05-23T12:52:11.968Z,80.49
2023-05-23T12:53:11.967Z,81.50
2023-05-23T12:54:11.953Z,82.01
2023-05-23T12:55:11.963Z,81.91
2023-05-23T12:56:11.951Z,82.15
2023-05-23T12:57:11.929Z,82.05
2023-05-23T12:58:11.924Z,82.59
2023-05-23T12:59:12.944Z,83.20
2023-05-23T13:00:11.917Z,82.76